PWSweather.com
Personal Weather Stations
Station Observations
NYERIN
South Erin, Erin, NY 14838-9545

South ErinErin, NY 14838-9545

Lat: 42.150605, Lon: -76.654038

Elevation: 1663

Station Type: Davis VP Pro II

http://southerin-ny.org/wx.php

Latest ConditionsUpdated 11:22:07 AM EDT Thursday, Apr 17, 2014
Currently Today's Max Today's Min Today's Average
Temperature 40.2°F4.6°C 40.2°F4.6°C 21.4°F-5.9°C 26.7°F-2.9°C
Dew Point 23.1°F-4.9°C 24.2°F-4.3°C 15.8°F-9.0°C 17.8°F-7.9°C
Winds 7.7 mph S12.4 kmh S 12.0 mph S19.3 kmh S - 2.8 mph 4.5 kmh
Wind Gusts 13.0 mph20.9 kmh 20.0 mph32.2 kmh - -
Humidity 50% 81% 49% 70%
Pressure 30.64 in1037.6 mb 30.67 in1038.6 mb 30.60 in1036.2 mb -
Hour Temp Dew Point Humidity Winds Wind Gusts Pressure Precip Precip Rate Daily Precip Total
11:22 AM 40.2°F4.6°C 23.1°F-4.9°C 50% 7.7 mph S12.4 kmh S 13.0 mph20.9 kmh 30.64 in1037.6 mb 0.00 in0.0 mm 0.00 in/hr0.0 mm/hr 0.00 in0.0 mm
11:12 AM 39.9°F4.4°C 22.3°F-5.4°C 49% 12.0 mph S19.3 kmh S 18.0 mph29.0 kmh 30.65 in1037.9 mb 0.00 in0.0 mm 0.00 in/hr0.0 mm/hr 0.00 in0.0 mm
11:02 AM 39.2°F4.0°C 23.0°F-5.0°C 52% 12.0 mph S19.3 kmh S 18.0 mph29.0 kmh 30.66 in1038.3 mb 0.00 in0.0 mm 0.00 in/hr0.0 mm/hr 0.00 in0.0 mm
10:52 AM 39.0°F3.9°C 23.3°F-4.8°C 53% 8.0 mph SSE12.9 kmh SSE 14.0 mph22.5 kmh 30.66 in1038.3 mb 0.00 in0.0 mm 0.00 in/hr0.0 mm/hr 0.00 in0.0 mm
10:42 AM 38.6°F3.7°C 24.2°F-4.3°C 56% 8.6 mph S13.8 kmh S 13.0 mph20.9 kmh 30.66 in1038.3 mb 0.00 in0.0 mm 0.00 in/hr0.0 mm/hr 0.00 in0.0 mm
10:32 AM 38.0°F3.3°C 23.2°F-4.9°C 55% 10.1 mph SSE16.3 kmh SSE 15.0 mph24.1 kmh 30.66 in1038.3 mb 0.00 in0.0 mm 0.00 in/hr0.0 mm/hr 0.00 in0.0 mm
10:22 AM 36.5°F2.5°C 21.8°F-5.7°C 55% 7.8 mph S12.6 kmh S 12.0 mph19.3 kmh 30.67 in1038.6 mb 0.00 in0.0 mm 0.00 in/hr0.0 mm/hr 0.00 in0.0 mm
10:12 AM 36.4°F2.4°C 21.7°F-5.7°C 55% 7.0 mph SSE11.3 kmh SSE 13.0 mph20.9 kmh 30.67 in1038.6 mb 0.00 in0.0 mm 0.00 in/hr0.0 mm/hr 0.00 in0.0 mm
10:02 AM 35.9°F2.2°C 21.7°F-5.7°C 56% 6.2 mph SE10.0 kmh SE 10.0 mph16.1 kmh 30.67 in1038.6 mb 0.00 in0.0 mm 0.00 in/hr0.0 mm/hr 0.00 in0.0 mm
09:52 AM 35.3°F1.8°C 21.6°F-5.8°C 57% 10.6 mph SE17.1 kmh SE 20.0 mph32.2 kmh 30.67 in1038.6 mb 0.00 in0.0 mm 0.00 in/hr0.0 mm/hr 0.00 in0.0 mm
09:42 AM 35.6°F2.0°C 22.3°F-5.4°C 58% 4.3 mph SE6.9 kmh SE 9.0 mph14.5 kmh 30.67 in1038.6 mb 0.00 in0.0 mm 0.00 in/hr0.0 mm/hr 0.00 in0.0 mm
09:32 AM 34.3°F1.3°C 21.0°F-6.1°C 58% 8.8 mph SSE14.2 kmh SSE 16.0 mph25.7 kmh 30.67 in1038.6 mb 0.00 in0.0 mm 0.00 in/hr0.0 mm/hr 0.00 in0.0 mm
09:22 AM 33.8°F1.0°C 21.4°F-5.9°C 60% 7.5 mph SSE12.1 kmh SSE 16.0 mph25.7 kmh 30.67 in1038.6 mb 0.00 in0.0 mm 0.00 in/hr0.0 mm/hr 0.00 in0.0 mm
09:12 AM 32.8°F0.4°C 20.8°F-6.2°C 61% 6.5 mph SSE10.5 kmh SSE 11.0 mph17.7 kmh 30.67 in1038.6 mb 0.00 in0.0 mm 0.00 in/hr0.0 mm/hr 0.00 in0.0 mm
09:02 AM 31.7°F-0.2°C 20.5°F-6.4°C 63% 4.3 mph S6.9 kmh S 7.0 mph11.3 kmh 30.67 in1038.6 mb 0.00 in0.0 mm 0.00 in/hr0.0 mm/hr 0.00 in0.0 mm
08:52 AM 30.9°F-0.6°C 19.8°F-6.8°C 63% 7.3 mph SSE11.7 kmh SSE 12.0 mph19.3 kmh 30.67 in1038.6 mb 0.00 in0.0 mm 0.00 in/hr0.0 mm/hr 0.00 in0.0 mm
08:42 AM 30.4°F-0.9°C 19.6°F-6.9°C 64% 6.3 mph SSE10.1 kmh SSE 6.0 mph9.7 kmh 30.67 in1038.6 mb 0.00 in0.0 mm 0.00 in/hr0.0 mm/hr 0.00 in0.0 mm
08:32 AM 29.3°F-1.5°C 19.0°F-7.2°C 65% 6.4 mph SE10.3 kmh SE 10.0 mph16.1 kmh 30.67 in1038.6 mb 0.00 in0.0 mm 0.00 in/hr0.0 mm/hr 0.00 in0.0 mm
08:22 AM 28.6°F-1.9°C 18.7°F-7.4°C 66% 5.7 mph SSE9.2 kmh SSE 9.0 mph14.5 kmh 30.67 in1038.6 mb 0.00 in0.0 mm 0.00 in/hr0.0 mm/hr 0.00 in0.0 mm
08:12 AM 27.8°F-2.3°C 17.9°F-7.8°C 66% 7.6 mph SSE12.2 kmh SSE 13.0 mph20.9 kmh 30.66 in1038.3 mb 0.00 in0.0 mm 0.00 in/hr0.0 mm/hr 0.00 in0.0 mm
08:02 AM 26.6°F-3.0°C 18.5°F-7.5°C 71% 4.8 mph SSE7.7 kmh SSE 8.0 mph12.9 kmh 30.66 in1038.3 mb 0.00 in0.0 mm 0.00 in/hr0.0 mm/hr 0.00 in0.0 mm
07:52 AM 24.8°F-4.0°C 18.3°F-7.6°C 76% 4.3 mph SSE6.9 kmh SSE 7.0 mph11.3 kmh 30.66 in1038.3 mb 0.00 in0.0 mm 0.00 in/hr0.0 mm/hr 0.00 in0.0 mm
07:42 AM 23.9°F-4.5°C 18.0°F-7.8°C 78% 3.8 mph SSE6.1 kmh SSE 5.0 mph8.0 kmh 30.65 in1037.9 mb 0.00 in0.0 mm 0.00 in/hr0.0 mm/hr 0.00 in0.0 mm
07:32 AM 23.2°F-4.9°C 17.7°F-7.9°C 79% 2.9 mph SSE4.7 kmh SSE 4.0 mph6.4 kmh 30.65 in1037.9 mb 0.00 in0.0 mm 0.00 in/hr0.0 mm/hr 0.00 in0.0 mm
07:22 AM 22.5°F-5.3°C 17.3°F-8.2°C 80% 2.8 mph SSE4.5 kmh SSE 4.0 mph6.4 kmh 30.64 in1037.6 mb 0.00 in0.0 mm 0.00 in/hr0.0 mm/hr 0.00 in0.0 mm
07:12 AM 22.1°F-5.5°C 17.2°F-8.2°C 81% 1.5 mph SSE2.4 kmh SSE 3.0 mph4.8 kmh 30.64 in1037.6 mb 0.00 in0.0 mm 0.00 in/hr0.0 mm/hr 0.00 in0.0 mm
07:02 AM 21.8°F-5.7°C 16.9°F-8.4°C 81% 0.6 mph SSE1.0 kmh SSE 3.0 mph4.8 kmh 30.64 in1037.6 mb 0.00 in0.0 mm 0.00 in/hr0.0 mm/hr 0.00 in0.0 mm
06:52 AM 21.6°F-5.8°C 16.4°F-8.7°C 80% 0.6 mph SSE1.0 kmh SSE 1.0 mph1.6 kmh 30.63 in1037.3 mb 0.00 in0.0 mm 0.00 in/hr0.0 mm/hr 0.00 in0.0 mm
06:42 AM 21.4°F-5.9°C 16.2°F-8.8°C 80% Calm Calm -- 30.63 in1037.3 mb 0.00 in0.0 mm 0.00 in/hr0.0 mm/hr 0.00 in0.0 mm
06:32 AM 21.4°F-5.9°C 15.9°F-8.9°C 79% Calm Calm -- 30.63 in1037.3 mb 0.00 in0.0 mm 0.00 in/hr0.0 mm/hr 0.00 in0.0 mm
06:22 AM 21.5°F-5.8°C 16.0°F-8.9°C 79% Calm Calm -- 30.63 in1037.3 mb 0.00 in0.0 mm 0.00 in/hr0.0 mm/hr 0.00 in0.0 mm
06:12 AM 21.6°F-5.8°C 16.1°F-8.8°C 79% Calm Calm -- 30.63 in1037.3 mb 0.00 in0.0 mm 0.00 in/hr0.0 mm/hr 0.00 in0.0 mm
06:02 AM 21.8°F-5.7°C 16.0°F-8.9°C 78% 0.1 mph SSE0.2 kmh SSE -- 30.62 in1036.9 mb 0.00 in0.0 mm 0.00 in/hr0.0 mm/hr 0.00 in0.0 mm
05:52 AM 21.9°F-5.6°C 16.1°F-8.8°C 78% 0.2 mph SSE0.3 kmh SSE 2.0 mph3.2 kmh 30.62 in1036.9 mb 0.00 in0.0 mm 0.00 in/hr0.0 mm/hr 0.00 in0.0 mm
05:42 AM 21.9°F-5.6°C 15.8°F-9.0°C 77% 0.1 mph SSE0.2 kmh SSE 1.0 mph1.6 kmh 30.62 in1036.9 mb 0.00 in0.0 mm 0.00 in/hr0.0 mm/hr 0.00 in0.0 mm
05:32 AM 22.1°F-5.5°C 16.0°F-8.9°C 77% 0.1 mph SSE0.2 kmh SSE -- 30.62 in1036.9 mb 0.00 in0.0 mm 0.00 in/hr0.0 mm/hr 0.00 in0.0 mm
05:22 AM 22.2°F-5.4°C 16.1°F-8.8°C 77% Calm Calm -- 30.62 in1036.9 mb 0.00 in0.0 mm 0.00 in/hr0.0 mm/hr 0.00 in0.0 mm
05:12 AM 22.2°F-5.4°C 16.1°F-8.8°C 77% 0.4 mph SSE0.6 kmh SSE 2.0 mph3.2 kmh 30.62 in1036.9 mb 0.00 in0.0 mm 0.00 in/hr0.0 mm/hr 0.00 in0.0 mm
05:02 AM 22.2°F-5.4°C 16.1°F-8.8°C 77% 1.0 mph SSE1.6 kmh SSE 4.0 mph6.4 kmh 30.62 in1036.9 mb 0.00 in0.0 mm 0.00 in/hr0.0 mm/hr 0.00 in0.0 mm
04:52 AM 22.2°F-5.4°C 16.1°F-8.8°C 77% 0.1 mph SSE0.2 kmh SSE 1.0 mph1.6 kmh 30.62 in1036.9 mb 0.00 in0.0 mm 0.00 in/hr0.0 mm/hr 0.00 in0.0 mm
04:42 AM 22.4°F-5.3°C 16.0°F-8.9°C 76% 0.1 mph SE0.2 kmh SE -- 30.62 in1036.9 mb 0.00 in0.0 mm 0.00 in/hr0.0 mm/hr 0.00 in0.0 mm
04:32 AM 22.4°F-5.3°C 16.0°F-8.9°C 76% 0.1 mph SE0.2 kmh SE 1.0 mph1.6 kmh 30.62 in1036.9 mb 0.00 in0.0 mm 0.00 in/hr0.0 mm/hr 0.00 in0.0 mm
04:22 AM 22.4°F-5.3°C 16.0°F-8.9°C 76% 1.2 mph SE1.9 kmh SE 2.0 mph3.2 kmh 30.61 in1036.6 mb 0.00 in0.0 mm 0.00 in/hr0.0 mm/hr 0.00 in0.0 mm
04:12 AM 22.5°F-5.3°C 15.8°F-9.0°C 75% 0.9 mph SE1.4 kmh SE 2.0 mph3.2 kmh 30.62 in1036.9 mb 0.00 in0.0 mm 0.00 in/hr0.0 mm/hr 0.00 in0.0 mm
04:02 AM 22.7°F-5.2°C 16.0°F-8.9°C 75% 0.1 mph SE0.2 kmh SE -- 30.62 in1036.9 mb 0.00 in0.0 mm 0.00 in/hr0.0 mm/hr 0.00 in0.0 mm
03:52 AM 22.9°F-5.1°C 15.8°F-9.0°C 74% Calm Calm 1.0 mph1.6 kmh 30.62 in1036.9 mb 0.00 in0.0 mm 0.00 in/hr0.0 mm/hr 0.00 in0.0 mm
03:42 AM 23.0°F-5.0°C 15.9°F-8.9°C 74% 0.2 mph SE0.3 kmh SE 1.0 mph1.6 kmh 30.62 in1036.9 mb 0.00 in0.0 mm 0.00 in/hr0.0 mm/hr 0.00 in0.0 mm
03:32 AM 23.2°F-4.9°C 15.8°F-9.0°C 73% 0.1 mph SE0.2 kmh SE -- 30.62 in1036.9 mb 0.00 in0.0 mm 0.00 in/hr0.0 mm/hr 0.00 in0.0 mm
03:22 AM 23.3°F-4.8°C 15.9°F-8.9°C 73% 0.8 mph SE1.3 kmh SE 3.0 mph4.8 kmh 30.62 in1036.9 mb 0.00 in0.0 mm 0.00 in/hr0.0 mm/hr 0.00 in0.0 mm
03:12 AM 23.5°F-4.7°C 15.8°F-9.0°C 72% 0.7 mph SE1.1 kmh SE 1.0 mph1.6 kmh 30.62 in1036.9 mb 0.00 in0.0 mm 0.00 in/hr0.0 mm/hr 0.00 in0.0 mm
03:02 AM 23.6°F-4.7°C 15.9°F-8.9°C 72% 0.2 mph SE0.3 kmh SE 1.0 mph1.6 kmh 30.62 in1036.9 mb 0.00 in0.0 mm 0.00 in/hr0.0 mm/hr 0.00 in0.0 mm
02:52 AM 23.8°F-4.6°C 16.1°F-8.8°C 72% 0.5 mph ESE0.8 kmh ESE 2.0 mph3.2 kmh 30.62 in1036.9 mb 0.00 in0.0 mm 0.00 in/hr0.0 mm/hr 0.00 in0.0 mm
02:42 AM 23.9°F-4.5°C 16.2°F-8.8°C 72% 0.3 mph ESE0.5 kmh ESE 1.0 mph1.6 kmh 30.62 in1036.9 mb 0.00 in0.0 mm 0.00 in/hr0.0 mm/hr 0.00 in0.0 mm
02:32 AM 23.9°F-4.5°C 16.2°F-8.8°C 72% Calm Calm -- 30.62 in1036.9 mb 0.00 in0.0 mm 0.00 in/hr0.0 mm/hr 0.00 in0.0 mm
02:22 AM 23.9°F-4.5°C 16.2°F-8.8°C 72% 1.1 mph ESE1.8 kmh ESE 3.0 mph4.8 kmh 30.62 in1036.9 mb 0.00 in0.0 mm 0.00 in/hr0.0 mm/hr 0.00 in0.0 mm
02:12 AM 23.9°F-4.5°C 16.5°F-8.6°C 73% 1.6 mph ESE2.6 kmh ESE 5.0 mph8.0 kmh 30.62 in1036.9 mb 0.00 in0.0 mm 0.00 in/hr0.0 mm/hr 0.00 in0.0 mm
02:02 AM 23.9°F-4.5°C 16.5°F-8.6°C 73% 0.3 mph SE0.5 kmh SE 3.0 mph4.8 kmh 30.62 in1036.9 mb 0.00 in0.0 mm 0.00 in/hr0.0 mm/hr 0.00 in0.0 mm
01:52 AM 24.1°F-4.4°C 16.4°F-8.7°C 72% 0.6 mph SE1.0 kmh SE 2.0 mph3.2 kmh 30.62 in1036.9 mb 0.00 in0.0 mm 0.00 in/hr0.0 mm/hr 0.00 in0.0 mm
01:42 AM 24.2°F-4.3°C 16.5°F-8.6°C 72% 0.6 mph SE1.0 kmh SE 3.0 mph4.8 kmh 30.63 in1037.3 mb 0.00 in0.0 mm 0.00 in/hr0.0 mm/hr 0.00 in0.0 mm
01:32 AM 24.4°F-4.2°C 16.3°F-8.7°C 71% 0.9 mph SE1.4 kmh SE 2.0 mph3.2 kmh 30.62 in1036.9 mb 0.00 in0.0 mm 0.00 in/hr0.0 mm/hr 0.00 in0.0 mm
01:22 AM 24.7°F-4.1°C 16.6°F-8.6°C 71% 0.6 mph SE1.0 kmh SE 3.0 mph4.8 kmh 30.62 in1036.9 mb 0.00 in0.0 mm 0.00 in/hr0.0 mm/hr 0.00 in0.0 mm
01:12 AM 25.0°F-3.9°C 16.6°F-8.6°C 70% Calm Calm -- 30.62 in1036.9 mb 0.00 in0.0 mm 0.00 in/hr0.0 mm/hr 0.00 in0.0 mm
01:02 AM 25.1°F-3.8°C 16.4°F-8.7°C 69% 0.6 mph ESE1.0 kmh ESE 2.0 mph3.2 kmh 30.62 in1036.9 mb 0.00 in0.0 mm 0.00 in/hr0.0 mm/hr 0.00 in0.0 mm
12:52 AM 25.4°F-3.7°C 16.6°F-8.6°C 69% 0.2 mph ESE0.3 kmh ESE 1.0 mph1.6 kmh 30.62 in1036.9 mb 0.00 in0.0 mm 0.00 in/hr0.0 mm/hr 0.00 in0.0 mm
12:42 AM 25.6°F-3.6°C 16.5°F-8.6°C 68% 0.9 mph ESE1.4 kmh ESE 3.0 mph4.8 kmh 30.61 in1036.6 mb 0.00 in0.0 mm 0.00 in/hr0.0 mm/hr 0.00 in0.0 mm
12:32 AM 25.6°F-3.6°C 16.2°F-8.8°C 67% 0.2 mph ESE0.3 kmh ESE 2.0 mph3.2 kmh 30.61 in1036.6 mb 0.00 in0.0 mm 0.00 in/hr0.0 mm/hr 0.00 in0.0 mm
12:22 AM 25.6°F-3.6°C 16.2°F-8.8°C 67% 0.4 mph ESE0.6 kmh ESE 3.0 mph4.8 kmh 30.60 in1036.2 mb 0.00 in0.0 mm 0.00 in/hr0.0 mm/hr 0.00 in0.0 mm
12:12 AM 25.7°F-3.5°C 16.2°F-8.8°C 67% Calm Calm -- 30.60 in1036.2 mb 0.00 in0.0 mm 0.00 in/hr0.0 mm/hr 0.00 in0.0 mm
12:02 AM 25.8°F-3.4°C 16.7°F-8.5°C 68% 0.1 mph E0.2 kmh E 1.0 mph1.6 kmh 30.60 in1036.2 mb 0.00 in0.0 mm 0.00 in/hr0.0 mm/hr 0.00 in0.0 mm